Time;durP1;ratioP1;P1;durP2;ratioP2;P2;SDS_P1;SDS_P2;PMS_P1;PMS_P2;Temp;Humidity;BMP_temperature;BMP_pressure;BME280_temperature;BME280_humidity;BME280_pressure;Samples;Min_cycle;Max_cycle;Signal;HPM_P1;HPM_P2
2022/04/29 00:00:53;;;;;;;;;;;11.80;99.90;;;;;;5015546;28;19913;-68
2022/04/29 00:03:21;;;;;;;;;;;11.80;99.90;;;;;;5014434;28;19909;-68
2022/04/29 00:05:47;;;;;;;;;;;11.70;99.90;;;;;;5014992;28;19909;-68
2022/04/29 00:08:12;;;;;;;;;;;11.80;99.90;;;;;;5020134;28;20016;-68
2022/04/29 00:10:38;;;;;;;;;;;11.90;99.90;;;;;;5035283;28;19909;-68
2022/04/29 00:13:05;;;;;;;;;;;11.90;99.90;;;;;;5034145;28;20259;-68
2022/04/29 00:15:30;;;;;;;;;;;11.80;99.90;;;;;;5032977;28;19909;-69
2022/04/29 00:17:56;;;;;;;;;;;11.90;99.90;;;;;;5033984;28;19916;-67
2022/04/29 00:20:22;;;;;;;;;;;11.90;99.90;;;;;;5033662;28;19967;-68
2022/04/29 00:22:47;;;;;;;;;;;11.90;99.90;;;;;;5034059;28;20350;-68
2022/04/29 00:25:13;;;;;;;;;;;11.90;99.90;;;;;;5058178;22;19925;-71
2022/04/29 00:27:40;;;;;;;;;;;11.90;99.90;;;;;;5034270;28;19939;-71
2022/04/29 00:30:06;;;;;;;;;;;11.90;99.90;;;;;;5033600;28;19953;-71
2022/04/29 00:32:32;;;;;;;;;;;11.90;99.90;;;;;;5033321;28;19918;-72
2022/04/29 00:34:57;;;;;;;;;;;11.80;99.90;;;;;;5032174;28;19920;-72
2022/04/29 00:37:23;;;;;;;;;;;11.70;99.90;;;;;;5032790;28;19909;-72
2022/04/29 00:39:48;;;;;;;;;;;11.70;99.90;;;;;;5033234;28;19996;-72
2022/04/29 00:42:14;;;;;;;;;;;11.70;99.90;;;;;;5033584;28;19909;-72
2022/04/29 00:44:41;;;;;;;;;;;11.70;99.90;;;;;;5033155;28;20345;-72
2022/04/29 00:47:09;;;;;;;;;;;11.70;99.90;;;;;;5033448;28;19909;-72
2022/04/29 00:49:34;;;;;;;;;;;11.80;99.90;;;;;;5032817;28;19909;-72
2022/04/29 00:52:00;;;;;;;;;;;11.80;99.90;;;;;;5033175;28;19939;-72
2022/04/29 00:54:30;;;;;;;;;;;11.80;99.90;;;;;;5032923;28;20453;-72
2022/04/29 00:56:56;;;;;;;;;;;11.70;99.90;;;;;;5033378;28;19920;-72
2022/04/29 00:59:54;;;;;;;;;;;11.40;99.90;;;;;;5031555;28;19916;-72
2022/04/29 01:02:20;;;;;;;;;;;11.30;99.90;;;;;;5010851;28;19918;-72
2022/04/29 01:04:52;;;;;;;;;;;11.10;99.90;;;;;;5010847;28;20260;-72
2022/04/29 01:07:17;;;;;;;;;;;11.00;99.90;;;;;;4994685;28;19914;-72
2022/04/29 01:09:42;;;;;;;;;;;11.00;99.90;;;;;;5010500;28;19909;-72
2022/04/29 01:12:08;;;;;;;;;;;11.00;99.90;;;;;;5010969;28;19983;-72
2022/04/29 01:14:34;;;;;;;;;;;10.90;99.90;;;;;;5010807;28;19910;-72
2022/04/29 01:17:00;;;;;;;;;;;10.80;99.90;;;;;;5010671;28;20443;-72
2022/04/29 01:19:25;;;;;;;;;;;10.70;99.90;;;;;;5010491;28;19909;-72
2022/04/29 01:21:51;;;;;;;;;;;10.60;99.90;;;;;;5010584;28;20004;-71
2022/04/29 01:24:17;;;;;;;;;;;10.50;99.90;;;;;;5010214;28;19925;-72
2022/04/29 01:26:42;;;;;;;;;;;10.60;99.90;;;;;;5010452;28;19964;-73
2022/04/29 01:29:08;;;;;;;;;;;10.70;99.90;;;;;;5010219;28;19933;-72
2022/04/29 01:31:34;;;;;;;;;;;10.60;99.90;;;;;;5010247;28;19913;-72
2022/04/29 01:33:59;;;;;;;;;;;10.50;99.90;;;;;;4994006;28;19916;-71
2022/04/29 01:36:25;;;;;;;;;;;10.50;99.90;;;;;;5006447;28;19996;-71
2022/04/29 01:38:50;;;;;;;;;;;10.30;99.90;;;;;;5007907;28;19909;-72
2022/04/29 01:41:17;;;;;;;;;;;10.30;99.90;;;;;;5012706;28;20271;-72
2022/04/29 01:43:42;;;;;;;;;;;10.30;99.90;;;;;;5013217;28;19910;-72
2022/04/29 01:46:08;;;;;;;;;;;10.30;99.90;;;;;;5012999;28;19996;-70
2022/04/29 01:48:33;;;;;;;;;;;10.20;99.90;;;;;;5012511;28;20400;-71
2022/04/29 01:50:59;;;;;;;;;;;10.30;99.90;;;;;;5012299;28;20396;-71
2022/04/29 01:53:24;;;;;;;;;;;10.50;99.90;;;;;;5012216;28;19913;-71
2022/04/29 01:55:49;;;;;;;;;;;10.60;99.90;;;;;;5012458;28;19913;-71
2022/04/29 01:58:15;;;;;;;;;;;10.70;99.90;;;;;;5012334;28;19909;-71
2022/04/29 02:00:40;;;;;;;;;;;10.70;99.90;;;;;;5011955;28;20374;-71
2022/04/29 02:03:06;;;;;;;;;;;10.70;99.90;;;;;;5012309;28;19909;-71
2022/04/29 02:05:32;;;;;;;;;;;10.80;99.90;;;;;;5012064;28;19910;-71
2022/04/29 02:08:00;;;;;;;;;;;10.80;99.90;;;;;;5012235;28;20399;-71
2022/04/29 02:10:26;;;;;;;;;;;10.70;99.90;;;;;;5012172;28;19917;-72
2022/04/29 02:12:51;;;;;;;;;;;10.80;99.90;;;;;;5012377;28;19913;-72
2022/04/29 02:15:17;;;;;;;;;;;10.80;99.90;;;;;;5012241;28;19921;-71
2022/04/29 02:17:43;;;;;;;;;;;10.90;99.90;;;;;;5012218;28;20004;-71
2022/04/29 02:20:08;;;;;;;;;;;11.00;99.90;;;;;;5015862;28;19952;-72
2022/04/29 02:22:34;;;;;;;;;;;10.90;99.90;;;;;;5016027;28;19933;-72
2022/04/29 02:24:59;;;;;;;;;;;10.70;99.90;;;;;;5014716;28;20481;-72
2022/04/29 02:27:25;;;;;;;;;;;10.70;99.90;;;;;;5015828;28;19909;-72
2022/04/29 02:29:50;;;;;;;;;;;10.60;99.90;;;;;;5015621;28;19910;-72
2022/04/29 02:32:16;;;;;;;;;;;10.60;99.90;;;;;;5015714;28;19972;-72
2022/04/29 02:34:42;;;;;;;;;;;10.60;99.90;;;;;;5015875;28;20340;-71
2022/04/29 02:37:08;;;;;;;;;;;10.50;99.90;;;;;;5015223;28;20314;-71
2022/04/29 02:39:33;;;;;;;;;;;10.50;99.90;;;;;;5015455;28;19917;-72
2022/04/29 02:41:59;;;;;;;;;;;10.40;99.90;;;;;;5015902;28;19910;-71
2022/04/29 02:44:24;;;;;;;;;;;10.20;99.90;;;;;;5015592;28;19916;-71
2022/04/29 02:47:08;;;;;;;;;;;10.20;99.90;;;;;;5015690;28;19925;-72
2022/04/29 02:49:35;;;;;;;;;;;10.10;99.90;;;;;;5015473;28;20006;-71
2022/04/29 02:52:00;;;;;;;;;;;10.00;99.90;;;;;;5015725;28;19917;-71
2022/04/29 02:54:25;;;;;;;;;;;10.00;99.90;;;;;;5014300;28;20440;-72
2022/04/29 02:56:51;;;;;;;;;;;10.00;99.90;;;;;;5015757;28;19910;-72
2022/04/29 02:59:18;;;;;;;;;;;10.10;99.90;;;;;;5014968;28;19909;-72
2022/04/29 03:01:43;;;;;;;;;;;10.10;99.90;;;;;;5015638;28;19916;-73
2022/04/29 03:04:09;;;;;;;;;;;10.20;99.90;;;;;;5015658;28;20000;-72
2022/04/29 03:06:34;;;;;;;;;;;10.20;99.90;;;;;;5015676;28;20425;-72
2022/04/29 03:08:59;;;;;;;;;;;10.20;99.90;;;;;;5015664;28;19913;-72
2022/04/29 03:11:25;;;;;;;;;;;10.20;99.90;;;;;;5019257;28;20105;-72
2022/04/29 03:13:50;;;;;;;20.03;15.10;;;10.30;99.90;;;;;;5022274;28;19912;-73
2022/04/29 03:16:16;;;;;;;23.57;15.43;;;10.40;99.90;;;;;;5039004;28;20678;-73
2022/04/29 03:18:43;;;;;;;17.03;14.93;;;10.50;99.90;;;;;;5036931;28;20675;-73
2022/04/29 03:21:09;;;;;;;21.87;17.30;;;10.60;99.90;;;;;;5034419;28;20229;-74
2022/04/29 03:23:34;;;;;;;22.70;16.17;;;10.50;99.90;;;;;;5034413;28;20449;-73
2022/04/29 03:26:00;;;;;;;20.30;16.67;;;10.50;99.90;;;;;;5034427;28;20551;-73
2022/04/29 03:28:26;;;;;;;20.47;16.60;;;10.50;99.90;;;;;;5034660;28;20249;-73
2022/04/29 03:30:51;;;;;;;24.53;16.57;;;10.50;99.90;;;;;;5034556;28;20159;-73
2022/04/29 03:33:17;;;;;;;23.57;17.23;;;10.40;99.90;;;;;;5035622;28;20199;-73
2022/04/29 03:35:45;;;;;;;22.83;16.70;;;10.30;99.90;;;;;;5039271;28;20225;-73
2022/04/29 03:38:11;;;;;;;19.40;16.97;;;10.20;99.90;;;;;;5039617;28;20168;-73
2022/04/29 03:40:38;;;;;;;20.03;17.33;;;10.10;99.90;;;;;;5034485;28;20440;-72
2022/04/29 03:43:03;;;;;;;24.17;17.63;;;10.00;99.90;;;;;;5035205;28;20479;-71
2022/04/29 03:45:29;;;;;;;24.73;17.80;;;10.00;99.90;;;;;;5034053;28;20442;-72
2022/04/29 03:47:55;;;;;;;21.77;17.07;;;9.80;99.90;;;;;;5032868;28;20195;-74
2022/04/29 03:50:25;;;;;;;24.53;17.87;;;9.70;99.90;;;;;;5033254;28;20448;-72
2022/04/29 03:52:56;;;;;;;20.30;17.60;;;9.60;99.90;;;;;;5035172;28;20536;-72
2022/04/29 03:55:25;;;;;;;19.87;17.17;;;9.60;99.90;;;;;;5034808;28;20476;-72
2022/04/29 03:57:53;;;;;;;19.30;16.67;;;9.60;99.90;;;;;;5034499;28;20469;-72
2022/04/29 04:00:19;;;;;;;24.10;18.10;;;9.70;99.90;;;;;;5033055;28;20448;-73
2022/04/29 04:02:44;;;;;;;23.47;18.33;;;9.80;99.90;;;;;;5033749;28;20453;-73
2022/04/29 04:05:11;;;;;;;23.00;17.63;;;9.90;99.90;;;;;;5032229;28;21001;-73
2022/04/29 04:07:37;;;;;;;24.60;18.20;;;9.80;99.90;;;;;;5032979;28;20185;-73
2022/04/29 04:10:04;;;;;;;22.43;18.23;;;9.90;99.90;;;;;;5034173;28;20410;-73
2022/04/29 04:12:42;;;;;;;21.07;18.10;;;9.90;99.90;;;;;;5034025;28;20687;-73
2022/04/29 04:15:09;;;;;;;24.90;17.97;;;9.90;99.90;;;;;;5035126;28;20508;-73
2022/04/29 04:17:35;;;;;;;21.67;18.50;;;9.80;99.90;;;;;;5034685;28;20463;-72
2022/04/29 04:20:00;;;;;;;23.00;17.93;;;9.90;99.90;;;;;;5033911;28;20414;-72
2022/04/29 04:22:27;;;;;;;25.97;18.47;;;9.90;99.90;;;;;;5034185;28;20182;-73
2022/04/29 04:24:53;;;;;;;24.30;18.30;;;10.00;99.90;;;;;;5033210;28;20215;-73
2022/04/29 04:27:19;;;;;;;24.93;18.27;;;10.00;99.90;;;;;;5031649;28;20417;-73
2022/04/29 04:29:44;;;;;;;28.80;18.73;;;10.00;99.90;;;;;;5033131;28;20425;-72
2022/04/29 04:32:10;;;;;;;21.03;18.30;;;10.00;99.90;;;;;;5033354;28;20205;-72
2022/04/29 04:34:51;;;;;;;22.90;17.47;;;10.10;99.90;;;;;;5031923;28;20190;-73
2022/04/29 04:37:17;;;;;;;22.90;18.97;;;10.10;99.90;;;;;;5032787;28;20175;-72
2022/04/29 04:39:44;;;;;;;22.07;18.77;;;10.10;99.90;;;;;;5032806;28;20405;-73
2022/04/29 04:42:09;;;;;;;23.57;18.20;;;10.20;99.90;;;;;;5032768;28;20444;-73
2022/04/29 04:44:35;;;;;;;28.57;18.20;;;10.20;99.90;;;;;;5032715;28;20879;-73
2022/04/29 04:47:01;;;;;;;24.27;19.80;;;10.20;99.90;;;;;;5033320;28;20167;-73
2022/04/29 04:49:27;;;;;;;27.40;19.60;;;10.30;99.90;;;;;;5032947;28;20421;-72
2022/04/29 04:51:52;;;;;;;25.57;20.53;;;10.20;99.90;;;;;;5028480;28;20800;-72
2022/04/29 04:54:18;;;;;;;27.63;20.83;;;10.20;99.90;;;;;;5022831;28;20726;-71
2022/04/29 04:56:43;;;;;;;25.50;20.40;;;10.20;99.90;;;;;;5030545;28;20801;-71
2022/04/29 04:59:09;;;;;;;22.83;19.40;;;10.30;99.90;;;;;;5030828;28;20678;-71
2022/04/29 05:01:34;;;;;;;28.07;21.37;;;10.30;99.90;;;;;;5031659;28;20206;-72
2022/04/29 05:04:00;;;;;;;27.67;21.37;;;10.30;99.90;;;;;;5031164;28;20205;-72
2022/04/29 05:06:26;;;;;;;24.53;21.00;;;10.30;99.90;;;;;;5031181;28;20211;-72
2022/04/29 05:08:51;;;;;;;27.80;19.67;;;10.30;99.90;;;;;;5031004;28;20241;-72
2022/04/29 05:11:17;;;;;;;25.30;20.20;;;10.20;99.90;;;;;;5030629;28;20203;-72
2022/04/29 05:13:42;;;;;;;25.43;19.07;;;10.30;99.90;;;;;;5031292;28;20222;-72
2022/04/29 05:16:08;;;;;;;25.50;20.90;;;10.40;99.90;;;;;;5030111;28;20218;-72
2022/04/29 05:18:33;;;;;;;24.20;20.10;;;10.40;99.90;;;;;;5031653;28;20282;-72
2022/04/29 05:21:00;;;;;;;28.83;19.60;;;10.50;99.90;;;;;;5031126;28;20215;-72
2022/04/29 05:23:26;;;;;;;25.70;19.70;;;10.50;99.90;;;;;;5031515;28;20201;-72
2022/04/29 05:25:52;;;;;;;25.53;18.77;;;10.50;99.90;;;;;;5030857;28;20456;-72
2022/04/29 05:28:17;;;;;;;18.93;16.57;;;10.50;99.90;;;;;;5031088;28;20523;-72
2022/04/29 05:30:43;;;;;;;24.57;19.57;;;10.50;99.90;;;;;;5030795;28;20655;-72
2022/04/29 05:33:09;;;;;;;23.20;20.10;;;10.50;99.90;;;;;;5031222;28;20206;-73
2022/04/29 05:35:35;;;;;;;27.03;19.20;;;10.50;99.90;;;;;;5031236;28;20511;-73
2022/04/29 05:38:01;;;;;;;24.37;20.97;;;10.50;99.90;;;;;;5030060;28;20647;-73
2022/04/29 05:43:12;;;;;;;23.67;19.10;;;10.50;99.90;;;;;;5031331;28;20807;-73
2022/04/29 05:45:38;;;;;;;20.43;18.13;;;10.50;99.90;;;;;;5031141;28;20445;-73
2022/04/29 05:48:04;;;;;;;24.00;18.27;;;10.50;99.90;;;;;;5029778;28;20441;-73
2022/04/29 05:50:29;;;;;;;19.17;17.10;;;10.50;99.90;;;;;;5031075;28;20202;-73
2022/04/29 05:52:55;;;;;;;25.70;18.93;;;10.60;99.90;;;;;;5029839;28;20514;-72
2022/04/29 05:55:20;;;;;;;26.43;19.83;;;10.60;99.90;;;;;;5030619;28;20221;-72
2022/04/29 05:57:46;;;;;;;25.40;19.57;;;10.60;99.90;;;;;;5028195;28;20213;-72
2022/04/29 06:00:12;;;;;;;28.10;19.57;;;10.60;99.90;;;;;;5028763;28;20186;-72
2022/04/29 06:02:42;;;;;;;26.70;20.90;;;10.60;99.90;;;;;;5028587;28;20313;-72
2022/04/29 06:05:08;;;;;;;29.10;20.10;;;10.70;99.90;;;;;;5027961;28;20957;-69
2022/04/29 06:07:34;;;;;;;24.20;20.40;;;10.80;99.90;;;;;;5027607;28;20468;-72
2022/04/29 06:10:00;;;;;;;23.80;18.83;;;10.80;99.90;;;;;;5028778;28;20430;-70
2022/04/29 06:12:26;;;;;;;27.93;19.90;;;10.90;99.90;;;;;;5029111;28;20473;-70
2022/04/29 06:14:51;;;;;;;25.43;19.43;;;11.00;99.90;;;;;;5030131;28;20210;-69
2022/04/29 06:17:17;;;;;;;26.80;19.83;;;11.10;99.90;;;;;;5028874;28;20558;-69
2022/04/29 06:19:42;;;;;;;26.23;19.17;;;11.10;99.90;;;;;;5023895;28;20211;-70
2022/04/29 06:22:08;;;;;;;21.57;19.17;;;11.20;99.90;;;;;;5023431;28;20277;-70
2022/04/29 06:24:34;;;;;;;27.93;18.30;;;11.30;99.90;;;;;;5022794;28;20677;-70
2022/04/29 06:27:01;;;;;;;22.23;19.40;;;11.30;99.90;;;;;;5014467;28;20945;-70
2022/04/29 06:29:27;;;;;;;22.33;19.70;;;11.40;99.90;;;;;;5049514;22;20495;-68
2022/04/29 06:31:53;;;;;;;23.17;19.73;;;11.40;99.90;;;;;;5029473;28;20552;-68
2022/04/29 06:34:19;;;;;;;23.43;19.37;;;11.40;99.90;;;;;;5028795;28;20228;-68
2022/04/29 06:36:44;;;;;;;23.30;18.03;;;11.50;99.90;;;;;;5029707;28;20853;-68
2022/04/29 06:39:10;;;;;;;25.83;19.87;;;11.60;99.90;;;;;;5029331;28;20610;-68
2022/04/29 06:41:36;;;;;;;27.40;21.40;;;11.40;99.90;;;;;;5029627;28;20217;-68
2022/04/29 06:44:02;;;;;;;25.53;20.10;;;11.20;99.90;;;;;;5028468;28;20225;-67
2022/04/29 06:46:28;;;;;;;23.27;19.67;;;11.10;99.90;;;;;;5030795;28;20179;-69
2022/04/29 06:48:55;;;;;;;27.70;20.50;;;11.00;99.90;;;;;;5030218;28;20497;-69
2022/04/29 06:51:25;;;;;;;29.00;20.50;;;11.10;99.90;;;;;;5030007;28;20202;-68
2022/04/29 06:53:51;;;;;;;22.93;19.70;;;11.10;99.90;;;;;;5031837;28;20440;-68
2022/04/29 06:56:16;;;;;;;24.63;18.57;;;11.30;99.90;;;;;;5031529;28;20494;-68
2022/04/29 06:58:42;;;;;;;24.80;18.90;;;11.40;99.90;;;;;;5031583;28;20441;-69
2022/04/29 07:01:07;;;;;;;23.33;20.07;;;11.60;99.90;;;;;;5031267;28;20182;-69
2022/04/29 07:03:33;;;;;;;25.97;18.93;;;11.70;99.90;;;;;;5031406;28;20265;-68
2022/04/29 07:06:01;;;;;;;20.27;18.10;;;11.80;99.90;;;;;;5035047;28;20178;-70
2022/04/29 07:08:29;;;;;;;26.63;19.53;;;11.90;99.90;;;;;;5033780;28;20278;-69
2022/04/29 07:10:56;;;;;;;21.83;19.47;;;11.90;99.90;;;;;;5034573;28;20429;-69
2022/04/29 07:13:21;;;;;;;20.97;18.70;;;12.00;99.90;;;;;;5035796;28;20495;-69
2022/04/29 07:15:48;;;;;;;24.40;20.20;;;12.00;99.90;;;;;;5034903;28;20409;-69
2022/04/29 07:18:14;;;;;;;22.63;18.63;;;12.10;99.90;;;;;;5034731;28;20163;-69
2022/04/29 07:20:40;;;;;;;25.90;19.53;;;12.20;99.90;;;;;;5033417;28;20429;-69
2022/04/29 07:23:06;;;;;;;22.43;18.90;;;12.10;99.90;;;;;;5034513;28;20405;-70
2022/04/29 07:25:31;;;;;;;22.40;19.30;;;11.90;99.90;;;;;;5035018;28;20270;-70
2022/04/29 07:27:57;;;;;;;21.10;18.47;;;11.90;99.90;;;;;;5034706;28;20174;-68
2022/04/29 07:30:23;;;;;;;21.13;18.17;;;11.90;99.90;;;;;;5032904;28;20263;-69
2022/04/29 07:32:48;;;;;;;23.43;19.03;;;12.00;99.90;;;;;;5034733;28;20248;-68
2022/04/29 07:43:26;;;;;;;23.27;19.40;;;12.40;99.90;;;;;;5034670;28;20404;-70
2022/04/29 07:45:52;;;;;;;22.03;19.63;;;12.60;99.90;;;;;;5034401;28;20496;-67
2022/04/29 07:48:19;;;;;;;25.00;19.67;;;12.70;99.90;;;;;;5034288;28;20178;-67
2022/04/29 07:50:44;;;;;;;20.63;18.20;;;12.80;99.90;;;;;;5034025;28;20426;-68
2022/04/29 07:53:10;;;;;;;22.43;18.23;;;12.90;99.90;;;;;;5034898;28;20577;-68
2022/04/29 07:55:36;;;;;;;24.77;17.77;;;13.10;99.90;;;;;;5034664;28;20175;-71
2022/04/29 07:58:03;;;;;;;20.33;17.90;;;13.30;99.90;;;;;;5034516;28;20281;-69
2022/04/29 08:00:31;;;;;;;23.47;18.33;;;13.50;99.90;;;;;;5032700;28;20445;-68
2022/04/29 08:03:00;;;;;;;18.10;16.17;;;13.60;99.90;;;;;;5034552;28;20532;-68
2022/04/29 08:05:27;;;;;;;19.20;16.50;;;13.70;99.90;;;;;;5034148;28;20402;-67
2022/04/29 08:07:55;;;;;;;18.67;16.00;;;13.90;99.90;;;;;;5034915;28;20458;-68
2022/04/29 08:10:21;;;;;;;18.53;16.47;;;13.90;99.90;;;;;;5033049;28;20804;-69
2022/04/29 08:12:47;;;;;;;16.93;14.97;;;14.00;99.90;;;;;;5034685;28;20837;-68
2022/04/29 08:15:13;;;;;;;18.63;15.80;;;14.00;99.90;;;;;;5034808;28;20416;-68
2022/04/29 08:17:39;;;;;;;18.37;16.47;;;14.20;99.90;;;;;;5039444;28;20230;-68
2022/04/29 08:20:07;;;;;;;21.23;17.53;;;14.30;99.90;;;;;;5037725;28;20195;-69
2022/04/29 08:22:32;;;;;;;18.50;15.20;;;14.50;99.90;;;;;;5043646;28;20425;-69
2022/04/29 08:24:58;;;;;;;18.33;15.50;;;14.60;99.60;;;;;;5040093;28;20480;-69
2022/04/29 08:27:23;;;;;;;17.83;15.83;;;14.70;99.30;;;;;;5040204;28;20540;-69
2022/04/29 08:29:49;;;;;;;18.40;16.60;;;14.80;99.00;;;;;;5043605;28;20218;-68
2022/04/29 08:32:14;;;;;;;19.13;16.93;;;14.90;98.80;;;;;;5043387;28;20214;-69
2022/04/29 08:34:42;;;;;;;19.73;16.57;;;15.00;98.50;;;;;;5042283;28;20194;-67
2022/04/29 08:37:08;;;;;;;20.03;15.13;;;15.10;98.40;;;;;;5037520;28;20163;-68
2022/04/29 08:39:34;;;;;;;17.33;15.43;;;15.20;98.00;;;;;;5033897;28;20421;-68
2022/04/29 08:42:02;;;;;;;19.43;14.67;;;15.20;97.90;;;;;;5035154;28;20420;-69
2022/04/29 08:44:31;;;;;;;18.80;16.80;;;15.30;97.80;;;;;;5044734;28;20418;-68
2022/04/29 08:47:02;;;;;;;18.37;15.37;;;15.40;97.50;;;;;;5047217;28;20181;-69
2022/04/29 08:49:37;;;;;;;17.17;15.47;;;15.40;97.30;;;;;;5046582;28;20437;-71
2022/04/29 08:52:03;;;;;;;17.30;14.60;;;15.50;97.10;;;;;;5047765;28;20496;-71
2022/04/29 08:59:59;;;;;;;17.00;14.80;;;15.60;96.80;;;;;;5034730;28;20460;-70
2022/04/29 09:02:29;;;;;;;20.67;17.00;;;15.60;96.50;;;;;;5033775;28;20418;-69
2022/04/29 09:04:59;;;;;;;16.70;13.97;;;15.60;96.40;;;;;;5033090;28;20413;-69
2022/04/29 09:07:53;;;;;;;19.73;14.87;;;15.60;96.40;;;;;;5031888;28;20946;-68
2022/04/29 09:10:19;;;;;;;20.67;15.27;;;15.70;96.50;;;;;;5026210;28;20848;-68
2022/04/29 09:12:45;;;;;;;18.70;15.60;;;15.70;96.00;;;;;;5032162;28;20461;-68
2022/04/29 09:15:12;;;;;;;19.03;14.77;;;15.70;96.20;;;;;;5032076;28;20454;-69
2022/04/29 09:17:40;;;;;;;16.07;14.33;;;15.80;96.10;;;;;;5032127;28;20170;-69
2022/04/29 09:20:18;;;;;;;17.20;14.20;;;15.90;95.70;;;;;;5031549;28;20429;-69
2022/04/29 09:22:50;;;;;;;14.47;12.93;;;15.80;95.30;;;;;;5032186;28;20412;-69
2022/04/29 09:25:17;;;;;;;16.73;13.47;;;15.80;95.30;;;;;;5032217;28;20832;-69
2022/04/29 09:28:01;;;;;;;14.50;13.00;;;15.60;94.60;;;;;;5031616;28;20421;-69
2022/04/29 09:30:38;;;;;;;14.63;12.37;;;15.40;94.90;;;;;;4986121;28;1717633;-69
2022/04/29 09:33:05;;;;;;;16.23;12.43;;;15.70;95.10;;;;;;5052594;28;20224;-69
2022/04/29 09:35:39;;;;;;;13.20;11.80;;;15.60;94.50;;;;;;5052274;28;20496;-68
2022/04/29 09:40:51;;;;;;;14.67;12.87;;;15.90;94.30;;;;;;5052297;28;20458;-69
2022/04/29 09:43:17;;;;;;;16.87;12.50;;;16.00;94.20;;;;;;5052472;28;20436;-69
2022/04/29 09:45:43;;;;;;;14.38;12.98;;;16.00;94.00;;;;;;5051250;28;20888;-68
2022/04/29 09:48:09;;;;;;;13.93;11.90;;;16.00;94.30;;;;;;5052485;28;20170;-69
2022/04/29 09:50:52;;;;;;;13.77;11.60;;;16.10;94.10;;;;;;5051965;28;20266;-68
2022/04/29 09:53:24;;;;;;;19.20;11.80;;;16.10;93.70;;;;;;5053021;28;20506;-68
2022/04/29 09:56:10;;;;;;;15.17;12.67;;;16.20;93.70;;;;;;5054064;28;20409;-69
2022/04/29 09:58:35;;;;;;;15.20;12.00;;;16.00;94.70;;;;;;5053639;28;20413;-69
2022/04/29 10:01:04;;;;;;;14.90;11.80;;;15.90;95.30;;;;;;5052461;28;20474;-69
2022/04/29 10:03:30;;;;;;;14.50;12.03;;;16.00;95.20;;;;;;5052381;28;20174;-69
2022/04/29 10:05:57;;;;;;;14.07;12.37;;;16.00;95.00;;;;;;5052387;28;20408;-70
2022/04/29 10:08:25;;;;;;;14.50;12.10;;;15.90;94.90;;;;;;5052420;28;20462;-68
2022/04/29 10:10:52;;;;;;;15.60;11.97;;;16.00;95.00;;;;;;5052211;28;20429;-69
2022/04/29 10:13:18;;;;;;;17.80;13.00;;;16.20;94.90;;;;;;5052211;28;20456;-70
2022/04/29 10:15:46;;;;;;;16.90;13.07;;;16.20;94.60;;;;;;5034430;28;20405;-71
2022/04/29 10:21:17;;;;;;;16.00;12.33;;;16.60;94.50;;;;;;5051758;28;20485;-68
2022/04/29 10:23:49;;;;;;;14.50;12.50;;;16.70;94.00;;;;;;5051670;28;20420;-69
2022/04/29 10:26:17;;;;;;;16.57;12.17;;;16.20;94.50;;;;;;5051850;28;20807;-67
2022/04/29 10:28:43;;;;;;;13.17;11.77;;;16.20;94.80;;;;;;5053880;28;20463;-69
2022/04/29 10:31:16;;;;;;;14.47;11.60;;;16.40;94.70;;;;;;5052651;28;20421;-68
2022/04/29 10:33:42;;;;;;;12.00;10.70;;;16.60;94.40;;;;;;5051656;28;20468;-69
2022/04/29 10:36:14;;;;;;;13.67;12.30;;;16.50;94.00;;;;;;5051655;28;20409;-68
2022/04/29 10:38:41;;;;;;;17.23;12.63;;;16.00;94.50;;;;;;5051519;28;20174;-68
2022/04/29 10:41:07;;;;;;;13.03;11.73;;;15.80;95.50;;;;;;5037284;28;20413;-69
2022/04/29 10:43:51;;;;;;;20.00;13.47;;;16.10;95.50;;;;;;5055575;28;20434;-70
2022/04/29 10:46:39;;;;;;;14.53;13.07;;;15.90;95.50;;;;;;5055457;28;20170;-70
2022/04/29 10:49:28;;;;;;;16.27;11.57;;;15.70;96.10;;;;;;5054974;28;20436;-72
2022/04/29 10:51:56;;;;;;;15.40;11.70;;;15.80;96.40;;;;;;5055147;28;20456;-67
2022/04/29 10:54:33;;;;;;;14.07;11.50;;;16.10;96.10;;;;;;5055338;28;20535;-68
2022/04/29 10:57:04;;;;;;;14.70;11.60;;;16.00;95.40;;;;;;5055090;28;20919;-69
2022/04/29 11:00:00;;;;;;;15.87;13.00;;;15.70;95.80;;;;;;5037094;28;20433;-69
2022/04/29 11:02:32;;;;;;;15.87;12.07;;;15.80;95.90;;;;;;5037361;28;20495;-70
2022/04/29 11:05:02;;;;;;;17.23;11.00;;;15.90;95.90;;;;;;5054971;28;20662;-71
2022/04/29 11:07:44;;;;;;;18.20;12.40;;;16.00;95.80;;;;;;5054917;28;20565;-70
2022/04/29 11:10:21;;;;;;;19.70;12.33;;;16.20;95.20;;;;;;5055081;28;20436;-69
2022/04/29 11:13:05;;;;;;;14.77;12.33;;;16.40;95.10;;;;;;5037245;28;20452;-69
2022/04/29 11:15:45;;;;;;;15.20;12.70;;;16.20;95.60;;;;;;5054747;28;20405;-68
2022/04/29 11:18:14;;;;;;;14.23;11.20;;;16.10;95.70;;;;;;5054903;28;20404;-70
2022/04/29 11:20:42;;;;;;;19.53;11.80;;;16.20;95.80;;;;;;5054319;28;20429;-69
2022/04/29 11:25:59;;;;;;;14.23;12.50;;;16.40;95.10;;;;;;5054715;28;20423;-68
2022/04/29 11:28:26;;;;;;;13.70;11.77;;;16.20;95.00;;;;;;5054591;28;20431;-70
2022/04/29 11:31:00;;;;;;;16.60;12.73;;;16.20;95.40;;;;;;5054127;28;20467;-69
2022/04/29 11:33:26;;;;;;;14.80;11.50;;;16.10;95.40;;;;;;5054767;28;20459;-69
2022/04/29 11:36:00;;;;;;;18.13;11.20;;;16.30;95.90;;;;;;5054873;28;20493;-69
2022/04/29 11:38:26;;;;;;;16.70;13.63;;;16.40;95.30;;;;;;5053105;28;20428;-67
2022/04/29 11:40:52;;;;;;;15.83;12.30;;;16.50;95.20;;;;;;5054178;28;20264;-69
2022/04/29 11:43:22;;;;;;;15.67;12.93;;;16.40;94.70;;;;;;5054553;28;20431;-68
2022/04/29 11:46:07;;;;;;;14.73;12.50;;;16.10;95.10;;;;;;5054451;28;20914;-69
2022/04/29 11:48:34;;;;;;;17.33;11.73;;;16.20;95.20;;;;;;5054858;28;20431;-69
2022/04/29 11:51:02;;;;;;;19.20;13.37;;;16.40;95.30;;;;;;5036149;28;20801;-69
2022/04/29 11:53:28;;;;;;;16.47;12.50;;;16.60;95.10;;;;;;5055349;28;20494;-69
2022/04/29 11:55:54;;;;;;;19.10;11.50;;;16.50;94.70;;;;;;5055590;28;20404;-70
2022/04/29 11:58:19;;;;;;;13.63;12.23;;;16.50;95.00;;;;;;5055515;28;20760;-70
2022/04/29 12:00:49;;;;;;;14.27;11.80;;;16.50;94.20;;;;;;5054072;28;20465;-70
2022/04/29 12:03:22;;;;;;;15.97;11.73;;;16.70;94.00;;;;;;5054099;28;20228;-69
2022/04/29 12:05:49;;;;;;;12.77;11.00;;;16.80;94.00;;;;;;5054189;28;20408;-69
2022/04/29 12:08:15;;;;;;;16.73;11.87;;;16.70;94.10;;;;;;5054195;28;20451;-69
2022/04/29 12:10:45;;;;;;;15.67;11.60;;;16.80;93.90;;;;;;5053749;28;20429;-69
2022/04/29 12:13:11;;;;;;;12.93;10.23;;;17.00;94.00;;;;;;5054141;28;20464;-68
2022/04/29 12:15:42;;;;;;;15.43;10.63;;;17.20;94.00;;;;;;5054026;28;20413;-68
2022/04/29 12:18:15;;;;;;;15.80;11.73;;;17.00;93.50;;;;;;5054061;28;20484;-69
2022/04/29 12:20:41;;;;;;;19.70;12.00;;;17.00;93.70;;;;;;5053821;28;20462;-69
2022/04/29 12:23:16;;;;;;;14.97;11.03;;;16.90;93.60;;;;;;5054276;28;20405;-69
2022/04/29 12:25:45;;;;;;;14.63;11.63;;;17.10;93.80;;;;;;5053804;28;20412;-69
2022/04/29 12:28:34;;;;;;;16.83;12.97;;;17.30;93.50;;;;;;5053705;28;20416;-69
2022/04/29 12:36:58;;;;;;;16.02;12.52;;;17.50;93.70;;;;;;5053279;28;20503;-70
2022/04/29 12:39:39;;;;;;;19.80;13.20;;;17.40;93.90;;;;;;5053509;28;20269;-71
2022/04/29 12:42:14;;;;;;;14.43;11.60;;;17.50;93.50;;;;;;5054312;28;20408;-70
2022/04/29 12:47:39;;;;;;;14.67;10.97;;;17.70;93.70;;;;;;5054048;28;20401;-71
2022/04/29 12:50:40;;;;;;;15.53;11.23;;;17.60;93.50;;;;;;5053115;28;20433;-72
2022/04/29 12:53:17;;;;;;;15.70;12.37;;;17.40;93.20;;;;;;5052982;28;20444;-70
2022/04/29 12:55:42;;;;;;;14.27;11.27;;;17.20;93.00;;;;;;5053450;28;20503;-70
2022/04/29 12:58:11;;;;;;;14.60;11.47;;;17.30;93.20;;;;;;5052887;28;20424;-70
2022/04/29 13:00:41;;;;;;;14.10;11.50;;;17.50;93.30;;;;;;5052065;28;20190;-70
2022/04/29 13:03:09;;;;;;;12.53;11.23;;;17.60;93.10;;;;;;5052616;28;20416;-70
2022/04/29 13:05:35;;;;;;;14.47;10.60;;;17.60;92.50;;;;;;5052544;28;20815;-70
2022/04/29 13:08:03;;;;;;;14.20;10.73;;;17.60;92.80;;;;;;5052776;28;20416;-70
2022/04/29 13:10:29;;;;;;;14.10;10.47;;;17.60;93.20;;;;;;5052276;28;20189;-70
2022/04/29 13:12:56;;;;;;;12.33;10.93;;;17.30;93.30;;;;;;5052748;28;20518;-70
2022/04/29 13:15:22;;;;;;;15.10;10.77;;;16.80;94.00;;;;;;5052777;28;20417;-70
2022/04/29 13:17:47;;;;;;;15.67;11.80;;;16.40;94.20;;;;;;5052666;28;20428;-71
2022/04/29 13:20:13;;;;;;;14.80;11.00;;;16.30;94.70;;;;;;5052190;28;20515;-71
2022/04/29 13:22:39;;;;;;;12.53;10.67;;;16.20;94.60;;;;;;5052769;28;20408;-73
2022/04/29 13:25:09;;;;;;;14.77;10.67;;;16.20;94.50;;;;;;5051137;28;20662;-71
2022/04/29 13:27:35;;;;;;;14.70;10.80;;;16.50;94.40;;;;;;5052651;28;20631;-70
2022/04/29 13:30:07;;;;;;;17.37;11.17;;;16.50;94.20;;;;;;5052438;28;20444;-72